createdAt,value
2019-04-22T00:00:29.021Z,1007.49
2019-04-22T00:01:28.618Z,1007.45
2019-04-22T00:02:24.669Z,1007.48
2019-04-22T00:03:33.947Z,1007.44
2019-04-22T00:04:40.251Z,1007.44
2019-04-22T00:05:44.368Z,1007.45
2019-04-22T00:06:50.072Z,1007.42
2019-04-22T00:07:48.935Z,1007.42
2019-04-22T00:08:53.245Z,1007.43
2019-04-22T00:09:53.021Z,1007.40
2019-04-22T00:11:01.156Z,1007.39
2019-04-22T00:11:54.658Z,1007.38
2019-04-22T00:13:52.075Z,1007.37
2019-04-22T00:14:48.391Z,1007.36
2019-04-22T00:15:41.952Z,1007.38
2019-04-22T00:16:56.675Z,1007.36
2019-04-22T00:17:55.273Z,1007.37
2019-04-22T00:19:11.454Z,1007.35
2019-04-22T00:19:55.530Z,1007.35
2019-04-22T00:20:54.354Z,1007.35
2019-04-22T00:21:55.138Z,1007.39
2019-04-22T00:22:44.912Z,1007.32
2019-04-22T00:23:51.517Z,1007.33
2019-04-22T00:24:51.286Z,1007.36
2019-04-22T00:25:57.153Z,1007.36
2019-04-22T00:26:50.250Z,1007.25
2019-04-22T00:28:53.279Z,1007.25
2019-04-22T00:30:02.491Z,1007.22
2019-04-22T00:30:47.394Z,1007.24
2019-04-22T00:31:45.606Z,1007.22
2019-04-22T00:32:46.432Z,1007.17
2019-04-22T00:33:45.320Z,1007.23
2019-04-22T00:34:51.319Z,1007.25
2019-04-22T00:35:48.701Z,1007.21
2019-04-22T00:36:52.620Z,1007.22
2019-04-22T00:37:54.127Z,1007.25
2019-04-22T00:38:51.634Z,1007.19
2019-04-22T00:39:50.252Z,1007.21
2019-04-22T00:41:50.514Z,1007.19
2019-04-22T00:42:47.259Z,1007.22
2019-04-22T00:43:47.999Z,1007.19
2019-04-22T00:44:51.790Z,1007.21
2019-04-22T00:45:53.204Z,1007.16
2019-04-22T00:46:54.463Z,1007.19
2019-04-22T00:47:46.169Z,1007.16
2019-04-22T00:49:05.854Z,1007.15
2019-04-22T00:50:58.356Z,1007.09
2019-04-22T00:51:52.680Z,1007.07
2019-04-22T00:52:47.489Z,1007.08
2019-04-22T00:53:46.839Z,1007.09
2019-04-22T00:54:55.795Z,1007.10
2019-04-22T00:55:46.301Z,1007.08
2019-04-22T00:56:48.156Z,1007.18
2019-04-22T00:57:46.483Z,1007.11
2019-04-22T00:58:46.389Z,1007.11
2019-04-22T00:59:55.117Z,1007.16
2019-04-22T01:00:57.565Z,1007.18
2019-04-22T01:01:46.993Z,1007.17
2019-04-22T01:03:02.991Z,1007.16
2019-04-22T01:03:56.649Z,1007.18
2019-04-22T01:05:00.901Z,1007.16
2019-04-22T01:05:50.966Z,1007.15
2019-04-22T01:06:44.556Z,1007.10
2019-04-22T01:07:49.556Z,1007.12
2019-04-22T01:09:00.392Z,1007.08
2019-04-22T01:09:56.543Z,1007.06
2019-04-22T01:10:52.882Z,1007.12
2019-04-22T01:11:45.075Z,1007.04
2019-04-22T01:12:49.992Z,1007.00
2019-04-22T01:13:50.446Z,1007.02
2019-04-22T01:14:47.564Z,1007.01
2019-04-22T01:15:47.582Z,1006.98
2019-04-22T01:16:50.691Z,1006.95
2019-04-22T01:17:54.581Z,1006.95
2019-04-22T01:18:52.264Z,1006.95
2019-04-22T01:19:51.235Z,1006.92
2019-04-22T01:21:05.956Z,1006.92
2019-04-22T01:21:44.782Z,1006.90
2019-04-22T01:22:46.048Z,1006.85
2019-04-22T01:23:43.795Z,1006.85
2019-04-22T01:24:48.119Z,1006.83
2019-04-22T01:25:41.418Z,1006.86
2019-04-22T01:26:41.894Z,1006.85
2019-04-22T01:27:40.234Z,1006.83
2019-04-22T01:28:34.222Z,1006.81
2019-04-22T01:29:39.785Z,1006.76
2019-04-22T01:30:32.200Z,1006.74
2019-04-22T01:31:27.544Z,1006.77
2019-04-22T01:32:32.182Z,1006.73
2019-04-22T01:33:32.462Z,1006.73
2019-04-22T01:34:37.554Z,1006.72
2019-04-22T01:35:37.757Z,1006.72
2019-04-22T01:36:45.087Z,1006.72
2019-04-22T01:37:44.346Z,1006.71
2019-04-22T01:38:45.476Z,1006.69
2019-04-22T01:39:49.960Z,1006.68
2019-04-22T01:40:53.496Z,1006.65
2019-04-22T01:41:54.879Z,1006.70
2019-04-22T01:42:57.512Z,1006.65
2019-04-22T01:43:58.734Z,1006.68
2019-04-22T01:44:45.824Z,1006.63
2019-04-22T01:45:45.725Z,1006.62
2019-04-22T01:46:53.906Z,1006.62
2019-04-22T01:47:49.415Z,1006.60
2019-04-22T01:48:47.512Z,1006.59
2019-04-22T01:49:46.424Z,1006.60
2019-04-22T01:50:49.995Z,1006.63
2019-04-22T01:52:52.043Z,1006.61
2019-04-22T01:53:56.563Z,1006.64
2019-04-22T01:54:52.148Z,1006.61
2019-04-22T01:55:50.255Z,1006.62
2019-04-22T01:57:47.704Z,1006.60
2019-04-22T01:58:40.669Z,1006.57
2019-04-22T01:59:41.356Z,1006.60
2019-04-22T02:00:53.419Z,1006.61
2019-04-22T02:01:52.168Z,1006.56
2019-04-22T02:02:49.217Z,1006.55
2019-04-22T02:03:57.755Z,1006.58
2019-04-22T02:04:51.453Z,1006.54
2019-04-22T02:05:56.662Z,1006.56
2019-04-22T02:06:50.904Z,1006.53
2019-04-22T02:07:49.026Z,1006.57
2019-04-22T02:08:56.889Z,1006.61
2019-04-22T02:09:51.474Z,1006.63
2019-04-22T02:10:55.034Z,1006.54
2019-04-22T02:11:57.202Z,1006.56
2019-04-22T02:12:48.360Z,1006.56
2019-04-22T02:13:52.369Z,1006.54
2019-04-22T02:15:06.078Z,1006.50
2019-04-22T02:15:53.885Z,1006.54
2019-04-22T02:16:50.407Z,1006.53
2019-04-22T02:17:54.874Z,1006.51
2019-04-22T02:18:52.436Z,1006.52
2019-04-22T02:19:53.466Z,1006.48
2019-04-22T02:20:48.893Z,1006.45
2019-04-22T02:21:51.546Z,1006.45
2019-04-22T02:23:00.824Z,1006.47
2019-04-22T02:25:56.093Z,1006.48
2019-04-22T02:26:51.954Z,1006.46
2019-04-22T02:27:54.658Z,1006.44
2019-04-22T02:29:01.589Z,1006.47
2019-04-22T02:29:50.368Z,1006.47
2019-04-22T02:31:13.834Z,1006.45
2019-04-22T02:33:18.470Z,1006.39
2019-04-22T02:34:09.322Z,1006.42
2019-04-22T02:35:01.957Z,1006.37
2019-04-22T02:36:11.745Z,1006.39
2019-04-22T02:36:50.473Z,1006.34
2019-04-22T02:37:55.034Z,1006.36
2019-04-22T02:39:57.918Z,1006.35
2019-04-22T02:41:50.898Z,1006.30
2019-04-22T02:42:52.235Z,1006.31
2019-04-22T02:44:53.219Z,1006.28
2019-04-22T02:46:23.298Z,1006.28
2019-04-22T02:47:07.860Z,1006.25
2019-04-22T02:48:00.921Z,1006.28
2019-04-22T02:49:04.060Z,1006.28
2019-04-22T02:49:53.549Z,1006.27
2019-04-22T02:51:06.980Z,1006.23
2019-04-22T02:51:43.207Z,1006.24
2019-04-22T02:53:17.492Z,1006.21
2019-04-22T02:54:22.327Z,1006.21
2019-04-22T02:54:55.139Z,1006.16
2019-04-22T02:56:02.583Z,1006.18
2019-04-22T02:56:43.794Z,1006.15
2019-04-22T02:57:47.548Z,1006.16
2019-04-22T02:59:11.645Z,1006.13
2019-04-22T02:59:57.140Z,1006.16
2019-04-22T03:01:01.191Z,1006.11
2019-04-22T03:01:47.097Z,1006.07
2019-04-22T03:03:17.973Z,1006.11
2019-04-22T03:04:04.423Z,1006.14
2019-04-22T03:04:54.883Z,1006.07
2019-04-22T03:06:16.543Z,1006.08
2019-04-22T03:07:58.817Z,1006.09
2019-04-22T03:09:57.734Z,1006.10
2019-04-22T03:11:04.053Z,1006.07
2019-04-22T03:12:03.668Z,1006.07
2019-04-22T03:12:53.947Z,1006.07
2019-04-22T03:13:55.448Z,1006.05
2019-04-22T03:14:48.246Z,1006.03
2019-04-22T03:15:59.574Z,1006.02
2019-04-22T03:17:10.937Z,1006.04
2019-04-22T03:17:58.407Z,1006.01
2019-04-22T03:19:09.970Z,1005.96
2019-04-22T03:20:58.325Z,1005.96
2019-04-22T03:21:54.557Z,1005.94
2019-04-22T03:22:59.984Z,1005.92
2019-04-22T03:23:55.842Z,1005.92
2019-04-22T03:27:48.355Z,1005.89
2019-04-22T03:28:57.025Z,1005.87
2019-04-22T03:30:26.223Z,1005.83
2019-04-22T03:34:39.047Z,1005.84
2019-04-22T03:36:18.716Z,1005.84
2019-04-22T03:39:17.631Z,1005.78
2019-04-22T03:40:03.979Z,1005.82
2019-04-22T03:41:13.418Z,1005.82
2019-04-22T03:42:06.988Z,1005.77
2019-04-22T03:42:59.710Z,1005.80
2019-04-22T03:44:15.089Z,1005.76
2019-04-22T03:45:00.915Z,1005.83
2019-04-22T03:45:52.512Z,1005.79
2019-04-22T03:47:02.304Z,1005.80
2019-04-22T03:49:11.794Z,1005.76
2019-04-22T03:50:04.599Z,1005.74
2019-04-22T03:50:42.946Z,1005.79
2019-04-22T03:54:02.798Z,1005.71
2019-04-22T03:55:51.467Z,1005.72
2019-04-22T03:57:25.971Z,1005.75
2019-04-22T03:57:57.362Z,1005.70
2019-04-22T03:59:00.727Z,1005.72
2019-04-22T04:02:16.191Z,1005.70
2019-04-22T04:02:55.956Z,1005.62
2019-04-22T04:04:07.428Z,1005.68
2019-04-22T04:04:49.451Z,1005.61
2019-04-22T04:05:53.521Z,1005.62
2019-04-22T04:08:51.604Z,1005.67
2019-04-22T04:10:08.194Z,1005.69
2019-04-22T04:10:55.356Z,1005.64
2019-04-22T04:13:05.710Z,1005.66
2019-04-22T04:14:05.122Z,1005.64
2019-04-22T04:15:14.000Z,1005.63
2019-04-22T04:15:49.986Z,1005.62
2019-04-22T04:17:00.205Z,1005.62
2019-04-22T04:18:01.574Z,1005.59
2019-04-22T04:21:03.687Z,1005.59
2019-04-22T04:21:53.421Z,1005.58
2019-04-22T04:22:59.250Z,1005.58
2019-04-22T04:24:29.568Z,1005.57
2019-04-22T04:25:08.881Z,1005.54
2019-04-22T04:27:27.186Z,1005.50
2019-04-22T04:29:10.168Z,1005.48
2019-04-22T04:31:21.852Z,1005.46
2019-04-22T04:33:04.849Z,1005.47
2019-04-22T04:33:54.399Z,1005.45
2019-04-22T04:35:13.105Z,1005.44
2019-04-22T04:35:58.708Z,1005.42
2019-04-22T04:37:07.027Z,1005.43
2019-04-22T04:37:55.918Z,1005.46
2019-04-22T04:38:51.838Z,1005.44
2019-04-22T04:40:50.801Z,1005.40
2019-04-22T04:45:59.457Z,1005.40
2019-04-22T04:47:11.709Z,1005.38
2019-04-22T04:48:09.570Z,1005.42
2019-04-22T04:49:02.965Z,1005.42
2019-04-22T04:50:01.493Z,1005.43
2019-04-22T04:52:03.063Z,1005.42
2019-04-22T04:53:06.078Z,1005.39
2019-04-22T04:53:55.380Z,1005.38
2019-04-22T04:54:58.847Z,1005.39
2019-04-22T04:55:51.915Z,1005.41
2019-04-22T04:56:50.789Z,1005.38
2019-04-22T04:58:09.983Z,1005.40
2019-04-22T05:00:57.925Z,1005.42
2019-04-22T05:01:52.807Z,1005.38
2019-04-22T05:03:58.098Z,1005.41
2019-04-22T05:05:52.249Z,1005.40
2019-04-22T05:07:05.781Z,1005.40
2019-04-22T05:07:59.979Z,1005.39
2019-04-22T05:09:11.378Z,1005.38
2019-04-22T05:09:55.585Z,1005.40
2019-04-22T05:11:13.991Z,1005.38
2019-04-22T05:12:12.500Z,1005.38
2019-04-22T05:13:57.856Z,1005.36
2019-04-22T05:15:59.762Z,1005.39
2019-04-22T05:18:16.601Z,1005.34
2019-04-22T05:18:54.705Z,1005.38
2019-04-22T05:19:47.242Z,1005.38
2019-04-22T05:20:59.723Z,1005.38
2019-04-22T05:21:53.385Z,1005.34
2019-04-22T05:22:44.493Z,1005.37
2019-04-22T05:24:51.912Z,1005.36
2019-04-22T05:25:41.091Z,1005.37
2019-04-22T05:26:48.816Z,1005.35
2019-04-22T05:27:48.756Z,1005.36
2019-04-22T05:29:06.679Z,1005.37
2019-04-22T05:30:07.458Z,1005.35
2019-04-22T05:30:41.041Z,1005.36
2019-04-22T05:31:54.905Z,1005.32
2019-04-22T05:33:49.351Z,1005.27
2019-04-22T05:34:48.400Z,1005.25
2019-04-22T05:35:46.365Z,1005.26
2019-04-22T05:36:48.409Z,1005.24
2019-04-22T05:37:50.372Z,1005.24
2019-04-22T05:38:53.637Z,1005.27
2019-04-22T05:39:53.961Z,1005.22
2019-04-22T05:40:43.287Z,1005.23
2019-04-22T05:41:51.580Z,1005.24
2019-04-22T05:42:44.179Z,1005.26
2019-04-22T05:43:50.117Z,1005.25
2019-04-22T05:44:52.826Z,1005.29
2019-04-22T05:45:49.455Z,1005.22
2019-04-22T05:46:49.989Z,1005.24
2019-04-22T05:47:47.459Z,1005.25
2019-04-22T05:48:51.941Z,1005.24
2019-04-22T05:49:41.520Z,1005.23
2019-04-22T05:50:45.245Z,1005.25
2019-04-22T05:51:48.445Z,1005.25
2019-04-22T05:52:47.206Z,1005.26
2019-04-22T05:53:50.944Z,1005.27
2019-04-22T05:54:50.534Z,1005.26
2019-04-22T05:55:47.912Z,1005.29
2019-04-22T05:56:40.971Z,1005.24
2019-04-22T05:57:44.391Z,1005.29
2019-04-22T05:58:51.456Z,1005.27
2019-04-22T05:59:45.966Z,1005.24
2019-04-22T06:01:12.780Z,1005.23
2019-04-22T06:01:55.147Z,1005.26
2019-04-22T06:03:50.941Z,1005.24
2019-04-22T06:04:53.167Z,1005.24
2019-04-22T06:06:06.285Z,1005.19
2019-04-22T06:06:39.925Z,1005.26
2019-04-22T06:07:50.657Z,1005.24
2019-04-22T06:08:48.650Z,1005.24
2019-04-22T06:09:38.931Z,1005.25
2019-04-22T06:10:55.585Z,1005.26
2019-04-22T06:11:36.336Z,1005.24
2019-04-22T06:12:38.932Z,1005.24
2019-04-22T06:13:40.465Z,1005.25
2019-04-22T06:14:37.086Z,1005.20
2019-04-22T06:15:37.551Z,1005.25
2019-04-22T06:16:45.726Z,1005.21
2019-04-22T06:17:52.293Z,1005.20
2019-04-22T06:18:47.003Z,1005.19
2019-04-22T06:19:44.897Z,1005.20
2019-04-22T06:20:45.493Z,1005.21
2019-04-22T06:21:46.302Z,1005.17
2019-04-22T06:22:50.451Z,1005.13
2019-04-22T06:23:46.764Z,1005.14
2019-04-22T06:24:53.864Z,1005.13
2019-04-22T06:25:57.390Z,1005.11
2019-04-22T06:26:53.859Z,1005.11
2019-04-22T06:28:05.244Z,1005.16
2019-04-22T06:28:51.861Z,1005.18
2019-04-22T06:29:41.819Z,1005.20
2019-04-22T06:30:48.939Z,1005.19
2019-04-22T06:32:58.622Z,1005.21
2019-04-22T06:33:48.104Z,1005.25
2019-04-22T06:34:43.079Z,1005.23
2019-04-22T06:37:54.917Z,1005.14
2019-04-22T06:38:59.121Z,1005.17
2019-04-22T06:39:44.788Z,1005.17
2019-04-22T06:40:46.846Z,1005.19
2019-04-22T06:41:49.902Z,1005.18
2019-04-22T06:42:52.331Z,1005.18
2019-04-22T06:43:56.195Z,1005.16
2019-04-22T06:44:50.018Z,1005.16
2019-04-22T06:45:39.712Z,1005.06
2019-04-22T06:46:47.961Z,1005.12
2019-04-22T06:48:43.388Z,1005.10
2019-04-22T06:51:46.525Z,1005.11
2019-04-22T06:52:50.297Z,1005.11
2019-04-22T06:53:48.232Z,1005.12
2019-04-22T06:54:49.010Z,1005.10
2019-04-22T06:55:48.187Z,1005.13
2019-04-22T06:56:43.142Z,1005.13
2019-04-22T06:57:44.983Z,1005.13
2019-04-22T06:58:47.758Z,1005.13
2019-04-22T06:59:43.983Z,1005.15
2019-04-22T07:01:52.547Z,1005.15
2019-04-22T07:02:57.422Z,1005.12
2019-04-22T07:03:52.319Z,1005.16
2019-04-22T07:04:51.991Z,1005.10
2019-04-22T07:05:49.490Z,1005.12
2019-04-22T07:06:48.720Z,1005.16
2019-04-22T07:07:52.195Z,1005.14
2019-04-22T07:09:48.578Z,1005.14
2019-04-22T07:10:47.802Z,1005.16
2019-04-22T07:11:43.347Z,1005.17
2019-04-22T07:12:46.942Z,1005.20
2019-04-22T07:14:01.774Z,1005.14
2019-04-22T07:14:42.033Z,1005.11
2019-04-22T07:16:49.390Z,1005.13
2019-04-22T07:17:50.255Z,1005.12
2019-04-22T07:18:43.342Z,1005.08
2019-04-22T07:19:43.728Z,1005.07
2019-04-22T07:20:51.133Z,1005.05
2019-04-22T07:21:46.920Z,1005.06
2019-04-22T07:22:47.566Z,1005.07
2019-04-22T07:23:52.966Z,1005.10
2019-04-22T07:24:46.159Z,1005.04
2019-04-22T07:26:45.078Z,1005.01
2019-04-22T07:27:45.903Z,1005.04
2019-04-22T07:28:46.271Z,1005.00
2019-04-22T07:29:51.845Z,1005.05
2019-04-22T07:30:50.300Z,1005.00
2019-04-22T07:31:49.874Z,1005.00
2019-04-22T07:33:05.007Z,1005.01
2019-04-22T07:33:42.482Z,1004.98
2019-04-22T07:34:46.138Z,1004.95
2019-04-22T07:35:54.925Z,1005.03
2019-04-22T07:37:41.845Z,1004.95
2019-04-22T07:38:35.900Z,1004.92
2019-04-22T07:40:48.803Z,1004.90
2019-04-22T07:41:48.845Z,1004.91
2019-04-22T07:42:46.007Z,1004.84
2019-04-22T07:43:59.720Z,1004.84
2019-04-22T07:44:44.960Z,1004.85
2019-04-22T07:45:48.914Z,1004.82
2019-04-22T07:46:54.326Z,1004.85
2019-04-22T07:47:49.436Z,1004.85
2019-04-22T07:48:48.116Z,1004.82
2019-04-22T07:49:47.267Z,1004.79
2019-04-22T07:51:00.705Z,1004.75
2019-04-22T07:51:44.636Z,1004.81
2019-04-22T07:52:45.990Z,1004.72
2019-04-22T07:53:43.332Z,1004.71
2019-04-22T07:54:47.968Z,1004.70
2019-04-22T07:55:50.545Z,1004.73
2019-04-22T07:56:43.881Z,1004.70
2019-04-22T07:57:49.469Z,1004.69
2019-04-22T07:58:44.937Z,1004.67
2019-04-22T07:59:41.163Z,1004.70
2019-04-22T08:01:02.023Z,1004.63
2019-04-22T08:01:41.833Z,1004.66
2019-04-22T08:02:51.576Z,1004.63
2019-04-22T08:05:53.492Z,1004.57
2019-04-22T08:06:49.380Z,1004.54
2019-04-22T08:07:45.350Z,1004.50
2019-04-22T08:08:45.601Z,1004.51
2019-04-22T08:09:55.626Z,1004.49
2019-04-22T08:11:49.968Z,1004.51
2019-04-22T08:12:45.791Z,1004.44
2019-04-22T08:13:43.270Z,1004.49
2019-04-22T08:14:47.133Z,1004.45
2019-04-22T08:15:51.211Z,1004.50
2019-04-22T08:16:43.344Z,1004.40
2019-04-22T08:18:39.547Z,1004.42
2019-04-22T08:19:53.952Z,1004.40
2019-04-22T08:20:58.394Z,1004.41
2019-04-22T08:21:46.206Z,1004.33
2019-04-22T08:22:43.139Z,1004.34
2019-04-22T08:23:51.048Z,1004.35
2019-04-22T08:25:42.892Z,1004.33
2019-04-22T08:26:51.339Z,1004.35
2019-04-22T08:27:47.144Z,1004.30
2019-04-22T08:28:45.829Z,1004.31
2019-04-22T08:29:52.422Z,1004.29
2019-04-22T08:30:47.686Z,1004.28
2019-04-22T08:31:48.774Z,1004.29
2019-04-22T08:33:39.759Z,1004.26
2019-04-22T08:34:42.183Z,1004.26
2019-04-22T08:36:00.292Z,1004.23
2019-04-22T08:36:53.966Z,1004.21
2019-04-22T08:38:52.903Z,1004.15
2019-04-22T08:39:40.557Z,1004.23
2019-04-22T08:40:47.281Z,1004.14
2019-04-22T08:42:51.399Z,1004.16
2019-04-22T08:43:56.130Z,1004.22
2019-04-22T08:45:54.246Z,1004.18
2019-04-22T08:47:04.756Z,1004.16
2019-04-22T08:47:41.954Z,1004.12
2019-04-22T08:48:44.487Z,1004.15
2019-04-22T08:49:50.476Z,1004.13
2019-04-22T08:50:47.057Z,1004.11
2019-04-22T08:51:42.636Z,1004.12
2019-04-22T08:52:42.228Z,1004.12
2019-04-22T08:53:48.192Z,1004.11
2019-04-22T08:54:45.012Z,1004.09
2019-04-22T08:55:51.940Z,1004.09
2019-04-22T08:57:00.107Z,1004.06
2019-04-22T08:58:03.694Z,1004.08
2019-04-22T08:58:44.548Z,1004.00
2019-04-22T08:59:46.553Z,1004.06
2019-04-22T09:00:51.346Z,1004.00
2019-04-22T09:01:40.745Z,1003.90
2019-04-22T09:02:46.672Z,1003.89
2019-04-22T09:03:50.443Z,1003.91
2019-04-22T09:04:44.728Z,1003.90
2019-04-22T09:07:06.112Z,1003.83
2019-04-22T09:07:48.977Z,1003.81
2019-04-22T09:08:48.832Z,1003.84
2019-04-22T09:09:44.558Z,1003.85
2019-04-22T09:10:43.273Z,1003.76
2019-04-22T09:11:48.488Z,1003.78
2019-04-22T09:13:03.632Z,1003.76
2019-04-22T09:13:45.398Z,1003.73
2019-04-22T09:14:45.722Z,1003.74
2019-04-22T09:15:42.194Z,1003.70
2019-04-22T09:17:02.363Z,1003.70
2019-04-22T09:17:47.315Z,1003.74
2019-04-22T09:19:40.603Z,1003.60
2019-04-22T09:20:49.225Z,1003.61
2019-04-22T09:21:45.487Z,1003.62
2019-04-22T09:22:44.029Z,1003.57
2019-04-22T09:23:53.896Z,1003.52
2019-04-22T09:24:43.846Z,1003.56
2019-04-22T09:25:41.941Z,1003.55
2019-04-22T09:26:41.874Z,1003.62
2019-04-22T09:27:48.498Z,1003.51
2019-04-22T09:28:44.052Z,1003.58
2019-04-22T09:29:46.664Z,1003.52
2019-04-22T09:30:52.433Z,1003.47
2019-04-22T09:31:44.663Z,1003.53
2019-04-22T09:32:45.251Z,1003.39
2019-04-22T09:33:43.221Z,1003.35
2019-04-22T09:35:00.234Z,1003.31
2019-04-22T09:35:45.018Z,1003.35
2019-04-22T09:36:42.069Z,1003.23
2019-04-22T09:37:50.310Z,1003.27
2019-04-22T09:38:41.145Z,1003.26
2019-04-22T09:39:59.906Z,1003.26
2019-04-22T09:40:43.023Z,1003.22
2019-04-22T09:41:48.261Z,1003.23
2019-04-22T09:42:48.708Z,1003.21
2019-04-22T09:43:48.280Z,1003.21
2019-04-22T09:44:53.199Z,1003.16
2019-04-22T09:45:43.899Z,1003.14
2019-04-22T09:47:53.654Z,1003.17
2019-04-22T09:48:43.527Z,1003.14
2019-04-22T09:49:49.782Z,1003.18
2019-04-22T09:50:45.632Z,1003.11
2019-04-22T09:51:45.053Z,1003.05
2019-04-22T09:52:44.019Z,1003.06
2019-04-22T09:53:46.825Z,1003.04
2019-04-22T09:55:03.045Z,1003.05
2019-04-22T09:55:45.108Z,1003.02
2019-04-22T09:56:43.951Z,1002.99
2019-04-22T09:57:39.751Z,1002.96
2019-04-22T09:58:44.084Z,1002.98
2019-04-22T09:59:44.057Z,1002.95
2019-04-22T10:00:43.016Z,1002.87
2019-04-22T10:02:03.959Z,1002.92
2019-04-22T10:02:47.115Z,1002.93
2019-04-22T10:03:44.500Z,1002.90
2019-04-22T10:04:50.358Z,1002.86
2019-04-22T10:06:11.514Z,1002.92
2019-04-22T10:06:39.469Z,1002.90
2019-04-22T10:07:43.240Z,1002.93
2019-04-22T10:08:54.235Z,1002.82
2019-04-22T10:10:41.489Z,1002.87
2019-04-22T10:11:57.720Z,1002.88
2019-04-22T10:12:42.293Z,1002.81
2019-04-22T10:13:47.589Z,1002.83
2019-04-22T10:14:45.693Z,1002.84
2019-04-22T10:15:50.532Z,1002.75
2019-04-22T10:16:45.548Z,1002.76
2019-04-22T10:17:47.785Z,1002.80
2019-04-22T10:18:45.869Z,1002.80
2019-04-22T10:19:40.905Z,1002.67
2019-04-22T10:20:46.017Z,1002.70
2019-04-22T10:21:54.903Z,1002.70
2019-04-22T10:22:46.106Z,1002.72
2019-04-22T10:23:48.481Z,1002.60
2019-04-22T10:24:42.819Z,1002.59
2019-04-22T10:25:46.062Z,1002.52
2019-04-22T10:28:06.925Z,1002.52
2019-04-22T10:28:44.767Z,1002.52
2019-04-22T10:29:52.002Z,1002.52
2019-04-22T10:31:11.474Z,1002.49
2019-04-22T10:31:43.635Z,1002.51
2019-04-22T10:32:46.311Z,1002.44
2019-04-22T10:33:38.170Z,1002.53
2019-04-22T10:34:29.222Z,1002.51
2019-04-22T10:35:20.994Z,1002.37
2019-04-22T10:36:17.368Z,1002.45
2019-04-22T10:37:19.923Z,1002.42
2019-04-22T10:38:18.477Z,1002.39
2019-04-22T10:39:16.283Z,1002.32
2019-04-22T10:40:17.711Z,1002.32
2019-04-22T10:41:16.583Z,1002.40
2019-04-22T10:42:17.403Z,1002.32
2019-04-22T10:43:17.045Z,1002.22
2019-04-22T10:44:17.192Z,1002.27
2019-04-22T10:45:16.539Z,1002.28
2019-04-22T10:46:15.991Z,1002.20
2019-04-22T10:47:16.045Z,1002.25
2019-04-22T10:48:16.499Z,1002.30
2019-04-22T10:49:16.128Z,1002.22
2019-04-22T10:50:16.547Z,1002.26
2019-04-22T10:51:16.909Z,1002.26
2019-04-22T10:52:16.472Z,1002.19
2019-04-22T10:53:17.429Z,1002.19
2019-04-22T10:54:15.866Z,1002.22
2019-04-22T10:55:17.275Z,1002.18
2019-04-22T10:56:16.939Z,1002.16
2019-04-22T10:57:15.970Z,1002.13
2019-04-22T10:58:16.956Z,1002.04
2019-04-22T10:59:16.436Z,1002.10
2019-04-22T11:00:15.799Z,1002.07
2019-04-22T11:01:15.916Z,1002.08
2019-04-22T11:02:16.986Z,1002.12
2019-04-22T11:03:16.176Z,1002.07
2019-04-22T11:04:15.753Z,1001.99
2019-04-22T11:05:16.713Z,1001.98
2019-04-22T11:06:17.046Z,1001.91
2019-04-22T11:07:17.362Z,1001.87
2019-04-22T11:08:25.631Z,1001.91
2019-04-22T11:09:18.261Z,1001.91
2019-04-22T11:10:33.544Z,1001.89
2019-04-22T11:11:26.192Z,1001.87
2019-04-22T11:12:20.663Z,1001.86
2019-04-22T11:13:17.982Z,1001.86
2019-04-22T11:14:16.818Z,1001.86
2019-04-22T11:15:15.948Z,1001.84
2019-04-22T11:16:17.302Z,1001.83
2019-04-22T11:17:15.747Z,1001.85
2019-04-22T11:18:15.752Z,1001.81
2019-04-22T11:19:15.591Z,1001.83
2019-04-22T11:20:15.624Z,1001.83
2019-04-22T11:21:15.780Z,1001.80
2019-04-22T11:22:22.129Z,1001.79
2019-04-22T11:23:16.551Z,1001.85
2019-04-22T11:24:16.761Z,1001.81
2019-04-22T11:25:16.085Z,1001.73
2019-04-22T11:26:15.669Z,1001.77
2019-04-22T11:27:16.819Z,1001.75
2019-04-22T11:28:16.044Z,1001.69
2019-04-22T11:29:15.487Z,1001.79
2019-04-22T11:30:18.532Z,1001.74
2019-04-22T11:31:16.600Z,1001.74
2019-04-22T11:32:15.448Z,1001.78
2019-04-22T11:33:16.355Z,1001.63
2019-04-22T11:34:15.460Z,1001.66
2019-04-22T11:35:16.162Z,1001.62
2019-04-22T11:36:15.840Z,1001.65
2019-04-22T11:37:16.611Z,1001.62
2019-04-22T11:38:15.380Z,1001.59
2019-04-22T11:39:16.972Z,1001.66
2019-04-22T11:40:23.599Z,1001.53
2019-04-22T11:41:16.850Z,1001.59
2019-04-22T11:42:16.311Z,1001.57
2019-04-22T11:43:16.416Z,1001.58
2019-04-22T11:44:15.314Z,1001.58
2019-04-22T11:45:15.346Z,1001.53
2019-04-22T11:46:15.742Z,1001.45
2019-04-22T11:47:15.308Z,1001.48
2019-04-22T11:48:15.492Z,1001.44
2019-04-22T11:49:16.216Z,1001.44
2019-04-22T11:50:15.756Z,1001.40
2019-04-22T11:51:15.953Z,1001.41
2019-04-22T11:52:17.395Z,1001.33
2019-04-22T11:53:16.581Z,1001.26
2019-04-22T11:54:16.792Z,1001.33
2019-04-22T11:55:15.192Z,1001.26
2019-04-22T11:56:16.626Z,1001.24
2019-04-22T11:57:15.240Z,1001.33
2019-04-22T11:58:15.161Z,1001.28
2019-04-22T11:59:15.316Z,1001.28
2019-04-22T12:00:16.684Z,1001.19
2019-04-22T12:01:15.127Z,1001.13
2019-04-22T12:02:16.195Z,1001.18
2019-04-22T12:03:15.111Z,1001.24
2019-04-22T12:04:16.027Z,1001.24
2019-04-22T12:05:15.901Z,1001.22
2019-04-22T12:06:15.803Z,1001.20
2019-04-22T12:07:15.166Z,1001.27
2019-04-22T12:08:15.564Z,1001.21
2019-04-22T12:09:15.471Z,1001.25
2019-04-22T12:10:26.528Z,1001.20
2019-04-22T12:11:16.691Z,1001.21
2019-04-22T12:12:15.957Z,1001.17
2019-04-22T12:13:15.837Z,1001.16
2019-04-22T12:14:15.859Z,1001.09
2019-04-22T12:15:15.136Z,1001.10
2019-04-22T12:16:14.977Z,1001.15
2019-04-22T12:17:16.001Z,1001.09
2019-04-22T12:18:15.395Z,1001.06
2019-04-22T12:19:15.691Z,1001.05
2019-04-22T12:20:16.155Z,1001.03
2019-04-22T12:21:15.329Z,1000.96
2019-04-22T12:22:15.398Z,1000.98
2019-04-22T12:23:14.928Z,1000.99
2019-04-22T12:24:15.243Z,1000.96
2019-04-22T12:25:28.048Z,1000.91
2019-04-22T12:26:18.844Z,1000.90
2019-04-22T12:27:17.370Z,1000.85
2019-04-22T12:28:15.225Z,1000.90
2019-04-22T12:29:15.360Z,1000.82
2019-04-22T12:30:14.875Z,1000.78
2019-04-22T12:31:15.529Z,1000.83
2019-04-22T12:32:15.741Z,1000.84
2019-04-22T12:33:15.062Z,1000.82
2019-04-22T12:34:15.447Z,1000.84
2019-04-22T12:35:15.646Z,1000.77
2019-04-22T12:36:15.012Z,1000.73
2019-04-22T12:37:23.572Z,1000.76
2019-04-22T12:38:17.019Z,1000.73
2019-04-22T12:39:15.683Z,1000.69
2019-04-22T12:40:26.934Z,1000.64
2019-04-22T12:41:16.573Z,1000.64
2019-04-22T12:42:15.381Z,1000.68
2019-04-22T12:43:18.097Z,1000.64
2019-04-22T12:44:15.036Z,1000.57
2019-04-22T12:45:16.151Z,1000.56
2019-04-22T12:46:14.636Z,1000.52
2019-04-22T12:47:14.942Z,1000.62
2019-04-22T12:48:15.064Z,1000.54
2019-04-22T12:49:16.185Z,1000.48
2019-04-22T12:50:21.543Z,1000.50
2019-04-22T12:51:15.582Z,1000.50
2019-04-22T12:52:25.549Z,1000.47
2019-04-22T12:53:18.766Z,1000.47
2019-04-22T12:54:17.018Z,1000.42
2019-04-22T12:55:17.307Z,1000.42
2019-04-22T12:56:15.395Z,1000.42
2019-04-22T12:57:14.803Z,1000.38
2019-04-22T12:58:15.765Z,1000.36
2019-04-22T12:59:14.520Z,1000.38
2019-04-22T13:00:15.630Z,1000.46
2019-04-22T13:01:15.106Z,1000.38
2019-04-22T13:02:15.480Z,1000.32
2019-04-22T13:03:15.817Z,1000.28
2019-04-22T13:04:17.576Z,1000.32
2019-04-22T13:05:16.242Z,1000.24
2019-04-22T13:06:14.419Z,1000.23
2019-04-22T13:07:15.663Z,1000.22
2019-04-22T13:08:15.725Z,1000.25
2019-04-22T13:09:16.329Z,1000.21
2019-04-22T13:10:15.634Z,1000.26
2019-04-22T13:11:18.512Z,1000.26
2019-04-22T13:12:15.355Z,1000.24
2019-04-22T13:13:15.397Z,1000.23
2019-04-22T13:14:14.987Z,1000.12
2019-04-22T13:15:14.322Z,1000.20
2019-04-22T13:16:15.392Z,1000.14
2019-04-22T13:17:15.804Z,1000.07
2019-04-22T13:18:27.004Z,1000.09
2019-04-22T13:19:18.645Z,1000.03
2019-04-22T13:20:16.585Z,1000.08
2019-04-22T13:21:14.957Z,1000.05
2019-04-22T13:22:14.629Z,1000.02
2019-04-22T13:23:15.464Z,1000.01
2019-04-22T13:24:15.985Z,999.97
2019-04-22T13:25:15.538Z,999.95
2019-04-22T13:26:15.105Z,999.93